createdAt,value
2023-03-16T00:00:19.638Z,0.60
2023-03-16T00:02:47.488Z,0.87
2023-03-16T00:05:15.175Z,0.67
2023-03-16T00:07:43.512Z,0.97
2023-03-16T00:10:13.039Z,0.80
2023-03-16T00:12:44.070Z,0.80
2023-03-16T00:15:13.138Z,0.73
2023-03-16T00:17:40.645Z,0.73
2023-03-16T00:20:08.890Z,0.70
2023-03-16T00:22:36.237Z,0.80
2023-03-16T00:25:04.829Z,0.80
2023-03-16T00:27:32.267Z,1.10
2023-03-16T00:29:59.646Z,0.70
2023-03-16T00:32:29.318Z,0.83
2023-03-16T00:34:57.018Z,0.67
2023-03-16T00:37:26.753Z,0.63
2023-03-16T00:39:56.565Z,0.77
2023-03-16T00:42:27.580Z,0.80
2023-03-16T00:44:57.880Z,0.80
2023-03-16T00:47:28.660Z,0.73
2023-03-16T00:49:56.827Z,0.80
2023-03-16T00:52:25.431Z,0.70
2023-03-16T00:54:53.289Z,0.90
2023-03-16T00:57:22.429Z,0.60
2023-03-16T00:59:49.763Z,0.70
2023-03-16T01:02:20.325Z,0.73
2023-03-16T01:04:47.797Z,0.80
2023-03-16T01:07:16.325Z,0.60
2023-03-16T01:09:44.506Z,0.70
2023-03-16T01:12:15.449Z,0.80
2023-03-16T01:14:46.048Z,0.80
2023-03-16T01:17:14.469Z,0.60
2023-03-16T01:19:42.930Z,1.03
2023-03-16T01:22:11.860Z,0.60
2023-03-16T01:24:40.811Z,0.80
2023-03-16T01:27:09.227Z,0.80
2023-03-16T01:29:37.702Z,0.60
2023-03-16T01:32:06.247Z,0.77
2023-03-16T01:34:34.584Z,0.60
2023-03-16T01:37:02.278Z,0.73
2023-03-16T01:39:30.812Z,0.90
2023-03-16T01:41:58.176Z,0.73
2023-03-16T01:44:35.407Z,0.90
2023-03-16T01:47:02.740Z,0.73
2023-03-16T01:49:37.034Z,0.80
2023-03-16T01:52:16.931Z,0.80
2023-03-16T01:54:46.589Z,0.53
2023-03-16T01:57:23.835Z,0.67
2023-03-16T02:00:19.810Z,0.80
2023-03-16T02:02:55.164Z,0.70
2023-03-16T02:05:33.498Z,0.80
2023-03-16T02:08:03.138Z,0.70
2023-03-16T02:10:31.432Z,0.80
2023-03-16T02:12:59.204Z,0.70
2023-03-16T02:15:27.511Z,0.73
2023-03-16T02:17:57.789Z,0.70
2023-03-16T02:21:03.508Z,0.70
2023-03-16T02:23:32.692Z,0.80
2023-03-16T02:26:23.129Z,0.83
2023-03-16T02:28:56.159Z,0.90
2023-03-16T02:31:23.809Z,0.80
2023-03-16T02:33:54.288Z,0.90
2023-03-16T02:36:22.091Z,0.87
2023-03-16T02:38:49.593Z,0.80
2023-03-16T02:41:19.315Z,0.60
2023-03-16T02:44:26.424Z,0.60
2023-03-16T02:46:58.426Z,0.80
2023-03-16T02:49:38.726Z,0.80
2023-03-16T02:52:08.303Z,0.80
2023-03-16T02:54:35.923Z,0.87
2023-03-16T02:57:03.450Z,0.80
2023-03-16T02:59:31.234Z,0.80
2023-03-16T03:01:58.758Z,0.60
2023-03-16T03:04:26.164Z,1.03
2023-03-16T03:06:53.723Z,0.90
2023-03-16T03:09:21.181Z,0.70
2023-03-16T03:11:48.532Z,0.80
2023-03-16T03:14:16.984Z,1.00
2023-03-16T03:16:47.949Z,0.83
2023-03-16T03:19:15.452Z,0.70
2023-03-16T03:21:43.023Z,1.63
2023-03-16T03:24:10.703Z,1.00
2023-03-16T03:26:38.618Z,0.87
2023-03-16T03:29:06.117Z,0.83
2023-03-16T03:31:33.623Z,0.90
2023-03-16T03:34:06.575Z,0.90
2023-03-16T03:36:35.060Z,0.83
2023-03-16T03:39:05.234Z,0.80
2023-03-16T03:41:33.566Z,0.90
2023-03-16T03:44:01.282Z,0.90
2023-03-16T03:46:28.786Z,0.90
2023-03-16T03:48:58.544Z,0.90
2023-03-16T03:51:25.993Z,1.00
2023-03-16T03:53:53.452Z,0.90
2023-03-16T03:56:20.905Z,0.90
2023-03-16T03:58:48.336Z,1.00
2023-03-16T04:01:15.936Z,1.00
2023-03-16T04:03:45.175Z,1.10
2023-03-16T04:06:12.788Z,0.80
2023-03-16T04:08:40.238Z,0.80
2023-03-16T04:11:07.735Z,1.00
2023-03-16T04:13:35.310Z,0.87
2023-03-16T04:16:05.805Z,0.90
2023-03-16T04:18:38.843Z,0.80
2023-03-16T04:21:07.894Z,0.93
2023-03-16T04:23:35.448Z,0.90
2023-03-16T04:26:03.980Z,0.93
2023-03-16T04:28:32.823Z,1.17
2023-03-16T04:31:08.297Z,0.77
2023-03-16T04:33:37.326Z,0.80
2023-03-16T04:36:06.391Z,0.83
2023-03-16T04:38:34.084Z,1.00
2023-03-16T04:41:03.373Z,0.70
2023-03-16T04:43:34.833Z,0.80
2023-03-16T04:46:04.572Z,0.90
2023-03-16T04:48:35.142Z,0.50
2023-03-16T04:51:04.144Z,0.57
2023-03-16T04:53:32.018Z,0.50
2023-03-16T04:55:59.618Z,0.80
2023-03-16T04:58:27.324Z,0.70
2023-03-16T05:00:55.613Z,0.70
2023-03-16T05:03:23.491Z,0.80
2023-03-16T05:05:51.226Z,0.40
2023-03-16T05:08:19.208Z,0.60
2023-03-16T05:10:48.457Z,0.60
2023-03-16T05:13:15.832Z,0.30
2023-03-16T05:15:43.757Z,0.40
2023-03-16T05:18:11.292Z,0.60
2023-03-16T05:20:38.820Z,0.80
2023-03-16T05:23:08.901Z,0.50
2023-03-16T05:25:36.321Z,0.50
2023-03-16T05:28:04.701Z,0.53
2023-03-16T05:30:32.040Z,0.70
2023-03-16T05:32:59.864Z,0.80
2023-03-16T05:35:28.296Z,1.00
2023-03-16T05:37:55.787Z,0.70
2023-03-16T05:40:23.394Z,0.67
2023-03-16T05:42:56.515Z,0.47
2023-03-16T05:45:24.846Z,0.80
2023-03-16T05:47:53.087Z,0.90
2023-03-16T05:50:20.659Z,0.80
2023-03-16T05:52:48.385Z,1.00
2023-03-16T05:55:17.913Z,1.03
2023-03-16T05:57:45.591Z,0.70
2023-03-16T06:00:15.704Z,0.83
2023-03-16T06:02:44.779Z,0.67
2023-03-16T06:05:12.221Z,1.00
2023-03-16T06:07:43.500Z,1.03
2023-03-16T06:10:12.216Z,1.30
2023-03-16T06:12:40.514Z,0.40
2023-03-16T06:15:10.647Z,0.80
2023-03-16T06:17:40.031Z,0.80
2023-03-16T06:20:12.082Z,1.10
2023-03-16T06:22:41.715Z,0.63
2023-03-16T06:25:12.443Z,1.40
2023-03-16T06:30:23.217Z,1.20
2023-03-16T06:32:51.383Z,1.20
2023-03-16T06:40:35.667Z,0.47
2023-03-16T06:43:03.170Z,0.53
2023-03-16T06:45:30.826Z,0.80
2023-03-16T06:48:05.128Z,0.43
2023-03-16T06:50:37.068Z,0.80
2023-03-16T06:53:06.094Z,1.10
2023-03-16T06:55:34.129Z,1.10
2023-03-16T06:58:03.371Z,0.90
2023-03-16T07:00:32.018Z,1.00
2023-03-16T07:03:01.985Z,1.00
2023-03-16T07:08:17.522Z,0.90
2023-03-16T07:10:46.177Z,0.67
2023-03-16T07:16:17.422Z,1.17
2023-03-16T07:18:45.479Z,0.40
2023-03-16T07:21:15.459Z,0.90
2023-03-16T07:26:35.997Z,0.80
2023-03-16T07:29:06.775Z,0.83
2023-03-16T07:31:36.793Z,0.70
2023-03-16T07:34:04.972Z,0.90
2023-03-16T07:36:33.411Z,0.40
2023-03-16T07:39:41.484Z,0.60
2023-03-16T07:42:10.724Z,1.27
2023-03-16T07:50:52.787Z,0.70
2023-03-16T08:00:46.196Z,0.77
2023-03-16T08:15:41.359Z,0.60
2023-03-16T08:28:18.057Z,0.50
2023-03-16T08:30:52.303Z,0.50
2023-03-16T08:33:30.913Z,0.70
2023-03-16T08:39:06.507Z,0.40
2023-03-16T08:44:41.475Z,0.50
2023-03-16T08:47:10.978Z,0.50
2023-03-16T08:52:14.596Z,0.40
2023-03-16T08:57:49.812Z,0.50
2023-03-16T09:00:20.643Z,0.60
2023-03-16T09:03:02.437Z,0.60
2023-03-16T09:05:52.024Z,0.60
2023-03-16T09:08:20.608Z,0.50
2023-03-16T09:10:54.857Z,0.50
2023-03-16T09:14:20.729Z,0.60
2023-03-16T09:16:50.277Z,0.50
2023-03-16T09:19:51.701Z,0.60
2023-03-16T09:22:44.245Z,0.40
2023-03-16T09:25:14.996Z,0.40
2023-03-16T09:27:43.382Z,0.40
2023-03-16T09:32:55.248Z,0.50
2023-03-16T09:35:26.625Z,0.55
2023-03-16T09:41:23.505Z,0.40
2023-03-16T09:44:27.713Z,0.30
2023-03-16T09:47:02.363Z,0.40
2023-03-16T09:58:00.053Z,0.60
2023-03-16T10:03:51.411Z,0.40
2023-03-16T10:06:19.828Z,0.40
2023-03-16T10:09:03.421Z,0.47
2023-03-16T10:11:37.861Z,0.47
2023-03-16T10:14:26.625Z,0.50
2023-03-16T10:17:22.419Z,0.60
2023-03-16T10:20:31.030Z,0.55
2023-03-16T10:25:51.106Z,0.50
2023-03-16T10:28:29.878Z,0.70
2023-03-16T10:36:41.357Z,0.52
2023-03-16T10:48:40.995Z,0.50
2023-03-16T10:51:31.424Z,0.57
2023-03-16T10:54:44.661Z,0.40
2023-03-16T11:05:01.869Z,0.40
2023-03-16T11:13:38.098Z,0.55
2023-03-16T11:16:08.457Z,0.47
2023-03-16T11:21:35.065Z,0.60
2023-03-16T11:26:54.812Z,0.50
2023-03-16T11:33:04.765Z,0.50
2023-03-16T11:35:58.365Z,0.50
2023-03-16T11:38:58.722Z,0.40
2023-03-16T11:41:37.694Z,0.50
2023-03-16T11:44:25.957Z,0.40
2023-03-16T11:46:59.368Z,0.30
2023-03-16T11:50:14.265Z,0.40
2023-03-16T11:53:02.140Z,0.35
2023-03-16T11:55:40.146Z,0.40
2023-03-16T11:58:34.714Z,0.35
2023-03-16T12:01:04.778Z,0.40
2023-03-16T12:03:47.454Z,0.35
2023-03-16T12:06:23.809Z,0.52
2023-03-16T12:09:15.079Z,0.40
2023-03-16T12:11:46.064Z,0.50
2023-03-16T12:14:24.988Z,0.50
2023-03-16T12:17:07.681Z,0.32
2023-03-16T12:22:39.914Z,0.40
2023-03-16T12:25:15.249Z,0.40
2023-03-16T12:27:45.868Z,0.35
2023-03-16T12:33:23.678Z,0.40
2023-03-16T12:36:01.305Z,0.40
2023-03-16T12:38:29.371Z,0.50
2023-03-16T13:03:26.351Z,0.60
2023-03-16T13:05:58.995Z,0.55
2023-03-16T13:08:32.613Z,0.70
2023-03-16T13:11:05.463Z,0.50
2023-03-16T13:13:34.355Z,0.60
2023-03-16T13:16:07.122Z,0.60
2023-03-16T13:18:36.510Z,0.60
2023-03-16T13:21:21.588Z,0.70
2023-03-16T13:23:59.488Z,0.77
2023-03-16T13:26:37.728Z,0.50
2023-03-16T13:29:20.703Z,0.60
2023-03-16T13:31:48.945Z,0.43
2023-03-16T13:34:20.774Z,0.70
2023-03-16T13:36:50.138Z,0.50
2023-03-16T13:39:19.232Z,0.70
2023-03-16T13:42:19.413Z,0.45
2023-03-16T13:44:48.831Z,0.57
2023-03-16T13:47:19.932Z,0.70
2023-03-16T13:49:48.950Z,0.60
2023-03-16T13:52:26.512Z,0.70
2023-03-16T13:54:55.324Z,0.50
2023-03-16T13:57:26.010Z,0.50
2023-03-16T13:59:59.430Z,0.68
2023-03-16T14:02:30.278Z,0.63
2023-03-16T14:04:58.505Z,0.40
2023-03-16T14:07:27.935Z,0.52
2023-03-16T14:10:00.007Z,0.68
2023-03-16T14:12:29.356Z,0.52
2023-03-16T14:14:57.499Z,0.75
2023-03-16T14:17:25.309Z,0.50
2023-03-16T14:19:58.123Z,0.60
2023-03-16T14:22:38.710Z,0.70
2023-03-16T14:25:07.506Z,0.60
2023-03-16T14:27:41.455Z,0.60
2023-03-16T14:30:15.413Z,0.50
2023-03-16T14:32:50.621Z,0.80
2023-03-16T14:35:31.518Z,0.50
2023-03-16T15:01:07.285Z,0.40
2023-03-16T15:09:46.238Z,0.63
2023-03-16T15:12:19.818Z,0.50
2023-03-16T15:15:06.715Z,0.60
2023-03-16T15:17:34.603Z,0.65
2023-03-16T15:20:03.742Z,0.80
2023-03-16T15:22:38.516Z,0.57
2023-03-16T15:25:20.363Z,0.60
2023-03-16T15:27:48.597Z,0.85
2023-03-16T15:30:24.142Z,0.80
2023-03-16T15:32:52.435Z,0.70
2023-03-16T15:35:21.310Z,0.70
2023-03-16T15:37:49.149Z,0.80
2023-03-16T15:40:18.370Z,0.77
2023-03-16T15:42:47.005Z,0.60
2023-03-16T15:45:17.634Z,0.60
2023-03-16T15:47:45.852Z,0.80
2023-03-16T15:50:15.756Z,0.70
2023-03-16T15:52:45.344Z,0.70
2023-03-16T15:55:18.000Z,0.60
2023-03-16T15:57:45.805Z,0.70
2023-03-16T16:00:24.589Z,0.70
2023-03-16T16:02:52.615Z,0.70
2023-03-16T16:05:20.381Z,0.60
2023-03-16T16:07:48.479Z,0.60
2023-03-16T16:10:16.902Z,0.80
2023-03-16T16:12:51.312Z,0.70
2023-03-16T16:15:34.080Z,0.70
2023-03-16T16:18:21.578Z,0.67
2023-03-16T16:20:49.880Z,0.60
2023-03-16T16:23:18.154Z,0.70
2023-03-16T16:25:46.706Z,0.60
2023-03-16T16:28:18.003Z,0.60
2023-03-16T16:30:46.265Z,0.60
2023-03-16T16:33:24.865Z,0.70
2023-03-16T16:36:00.675Z,0.53
2023-03-16T16:38:28.159Z,0.50
2023-03-16T16:40:58.708Z,0.60
2023-03-16T16:43:41.607Z,0.60
2023-03-16T16:46:20.480Z,0.60
2023-03-16T16:48:49.463Z,0.50
2023-03-16T16:51:29.830Z,0.60
2023-03-16T16:53:59.196Z,1.07
2023-03-16T16:56:32.117Z,0.60
2023-03-16T16:59:08.085Z,0.60
2023-03-16T17:01:35.739Z,0.90
2023-03-16T17:04:14.987Z,0.70
2023-03-16T17:06:44.970Z,0.80
2023-03-16T17:09:14.477Z,0.63
2023-03-16T17:11:43.674Z,0.63
2023-03-16T17:14:16.307Z,0.70
2023-03-16T17:16:44.832Z,0.90
2023-03-16T17:19:21.357Z,0.90
2023-03-16T17:21:50.196Z,0.83
2023-03-16T17:24:19.130Z,1.03
2023-03-16T17:26:50.292Z,1.10
2023-03-16T17:29:27.483Z,1.50
2023-03-16T17:37:25.646Z,3.40
2023-03-16T17:39:56.250Z,2.03
2023-03-16T17:42:26.569Z,1.90
2023-03-16T17:44:54.266Z,1.60
2023-03-16T17:47:27.684Z,1.50
2023-03-16T17:49:56.985Z,1.40
2023-03-16T17:52:29.286Z,2.10
2023-03-16T17:54:56.754Z,1.70
2023-03-16T17:57:34.817Z,1.80
2023-03-16T18:00:09.026Z,1.70
2023-03-16T18:03:03.933Z,1.40
2023-03-16T18:05:36.415Z,1.50
2023-03-16T18:08:29.212Z,1.33
2023-03-16T18:10:59.265Z,1.50
2023-03-16T18:13:34.776Z,1.03
2023-03-16T18:16:03.493Z,1.17
2023-03-16T18:18:35.494Z,1.00
2023-03-16T18:21:04.068Z,1.03
2023-03-16T18:23:33.830Z,0.90
2023-03-16T18:26:06.565Z,1.10
2023-03-16T18:28:34.984Z,0.80
2023-03-16T18:31:05.142Z,0.90
2023-03-16T18:33:39.290Z,1.10
2023-03-16T18:36:15.812Z,1.07
2023-03-16T18:38:45.303Z,1.10
2023-03-16T18:41:17.438Z,1.20
2023-03-16T18:43:44.895Z,0.97
2023-03-16T18:46:31.178Z,1.23
2023-03-16T18:49:12.593Z,1.00
2023-03-16T18:51:40.597Z,1.10
2023-03-16T18:54:38.542Z,1.10
2023-03-16T18:57:11.447Z,1.30
2023-03-16T18:59:39.102Z,1.40
2023-03-16T19:02:14.523Z,1.50
2023-03-16T19:04:42.326Z,1.50
2023-03-16T19:07:16.639Z,1.60
2023-03-16T19:09:44.203Z,1.57
2023-03-16T19:12:16.111Z,1.70
2023-03-16T19:14:44.130Z,1.47
2023-03-16T19:17:11.885Z,1.67
2023-03-16T19:19:39.478Z,1.80
2023-03-16T19:22:15.604Z,1.40
2023-03-16T19:24:49.291Z,1.43
2023-03-16T19:27:22.969Z,1.00
2023-03-16T19:29:52.331Z,1.10
2023-03-16T19:32:21.080Z,1.07
2023-03-16T19:34:49.008Z,1.03
2023-03-16T19:37:19.951Z,1.17
2023-03-16T19:39:50.882Z,0.90
2023-03-16T19:42:46.821Z,0.90
2023-03-16T19:45:22.789Z,0.97
2023-03-16T19:47:53.860Z,0.80
2023-03-16T19:50:28.307Z,0.80
2023-03-16T19:53:02.487Z,0.97
2023-03-16T19:55:35.595Z,0.80
2023-03-16T19:58:08.188Z,0.83
2023-03-16T20:00:39.082Z,0.93
2023-03-16T20:03:09.670Z,0.90
2023-03-16T20:05:40.294Z,0.80
2023-03-16T20:08:21.659Z,0.90
2023-03-16T20:10:52.995Z,0.73
2023-03-16T20:13:23.752Z,0.90
2023-03-16T20:15:54.663Z,0.80
2023-03-16T20:18:29.870Z,0.73
2023-03-16T20:21:01.161Z,0.90
2023-03-16T20:23:35.518Z,0.80
2023-03-16T20:26:06.382Z,0.90
2023-03-16T20:28:41.245Z,0.80
2023-03-16T20:31:18.709Z,0.90
2023-03-16T20:33:52.328Z,0.90
2023-03-16T20:36:26.486Z,0.90
2023-03-16T20:38:57.508Z,0.87
2023-03-16T20:41:30.403Z,0.90
2023-03-16T20:44:03.303Z,1.00
2023-03-16T20:46:41.297Z,1.00
2023-03-16T20:49:29.843Z,1.10
2023-03-16T20:52:04.013Z,1.20
2023-03-16T20:54:34.967Z,0.90
2023-03-16T20:57:08.148Z,1.20
2023-03-16T20:59:38.013Z,1.20
2023-03-16T21:02:18.083Z,0.87
2023-03-16T21:04:49.041Z,0.90
2023-03-16T21:07:20.114Z,1.00
2023-03-16T21:09:59.736Z,0.93
2023-03-16T21:12:32.318Z,0.90
2023-03-16T21:15:03.848Z,1.07
2023-03-16T21:17:35.172Z,0.90
2023-03-16T21:20:06.386Z,0.93
2023-03-16T21:22:37.802Z,1.10
2023-03-16T21:25:10.176Z,0.73
2023-03-16T21:27:41.690Z,1.00
2023-03-16T21:30:19.510Z,1.10
2023-03-16T21:32:50.694Z,1.00
2023-03-16T21:35:22.114Z,1.00
2023-03-16T21:37:53.161Z,1.00
2023-03-16T21:40:22.061Z,0.90
2023-03-16T21:42:50.379Z,1.10
2023-03-16T21:45:18.301Z,0.97
2023-03-16T21:47:46.772Z,0.90
2023-03-16T21:50:28.612Z,0.90
2023-03-16T21:53:02.546Z,0.80
2023-03-16T21:55:37.087Z,0.80
2023-03-16T21:58:10.865Z,0.90
2023-03-16T22:00:47.013Z,1.17
2023-03-16T22:03:49.715Z,1.00
2023-03-16T22:06:18.760Z,0.90
2023-03-16T22:08:55.750Z,0.90
2023-03-16T22:11:30.102Z,0.97
2023-03-16T22:14:01.646Z,1.00
2023-03-16T22:16:43.981Z,1.00
2023-03-16T22:19:23.367Z,0.90
2023-03-16T22:22:02.638Z,0.80
2023-03-16T22:24:42.767Z,0.90
2023-03-16T22:27:21.637Z,0.93
2023-03-16T22:29:49.988Z,1.10
2023-03-16T22:32:19.305Z,0.80
2023-03-16T22:34:56.284Z,1.00
2023-03-16T22:37:26.235Z,1.13
2023-03-16T22:39:54.479Z,1.10
2023-03-16T22:42:25.255Z,0.90
2023-03-16T22:44:53.048Z,0.90
2023-03-16T22:47:25.194Z,0.90
2023-03-16T22:49:53.976Z,0.90
2023-03-16T22:52:23.849Z,1.00
2023-03-16T22:54:51.650Z,1.20
2023-03-16T22:57:19.417Z,1.17
2023-03-16T22:59:50.045Z,1.10
2023-03-16T23:02:19.032Z,0.73
2023-03-16T23:04:46.711Z,0.80
2023-03-16T23:07:15.197Z,0.50
2023-03-16T23:09:42.997Z,0.87
2023-03-16T23:12:20.135Z,1.00
2023-03-16T23:14:47.961Z,0.80
2023-03-16T23:17:22.863Z,1.07
2023-03-16T23:19:50.695Z,0.77
2023-03-16T23:22:18.745Z,0.90
2023-03-16T23:24:49.705Z,1.10
2023-03-16T23:27:24.060Z,1.30
2023-03-16T23:29:54.947Z,0.90
2023-03-16T23:32:27.541Z,0.93
2023-03-16T23:34:59.029Z,1.10
2023-03-16T23:37:33.938Z,1.03
2023-03-16T23:40:04.431Z,1.20
2023-03-16T23:42:35.042Z,1.03
2023-03-16T23:45:11.993Z,1.30
2023-03-16T23:47:42.780Z,0.90
2023-03-16T23:50:15.910Z,1.10
2023-03-16T23:52:44.995Z,1.13
2023-03-16T23:55:15.990Z,1.20
2023-03-16T23:57:44.869Z,1.30
